Babcock, Illinois
Current Conditions -  °F | °C
As of 1:52 PM on Sunday 25 Jan 2015 (Local Time) from KMLI Reporting Station
Overcast Overcast  
Wind Chill: 20°   Ceiling: 1600
Heat Index: 30°   Visibility: 10mi
Dew Point: 24°   Wind: 14mph
Humidity: 79%   Direction: 30°NNE
Pressure: 29.84"   Gusts: 23mph
Location:  41.5228°N, 90.3951°W
Report Text: KMLI 251952Z 03012G20KT 10SM BKN016 OVC021 M01/M04 A2984 RMK AO2 SNE04 SLP111 P0000 T10111044 $
Loading
Personal Weather Stations






























Interactive Weather Map New forecast layout! Learn more

10-Day Weather Forecast

Advertisements
Track Severe Weather on mobile